WetterOnline ( http://www.wetteronline.de )

Wetter aktuell Braunschweig

Aktuelles Wetter: Braunschweig/Flughafen (88m)

6-stündlich | Neueste Meldungen
Ortszeit Temperatur Wetter
Sa, 21.04. 2:00 15.0° C wolkig
Fr, 20.04. 20:00 23.6° C wolkig
Fr, 20.04. 14:00 26.9° C leicht bewölkt
Fr, 20.04. 8:00 14.4° C leicht bewölkt
Fr, 20.04. 2:00 15.2° C wolkenlos
Do, 19.04. 20:00 22.0° C leicht bewölkt
Do, 19.04. 14:00 24.4° C leicht bewölkt
Do, 19.04. 8:00 12.8° C fast wolkenlos
Ortszeit Temperatur Wetter
Sa, 21.04. 3:30 13.9° C wolkig
Sa, 21.04. 3:20 13.9° C wolkig
Sa, 21.04. 3:10 14.0° C leicht bewölkt
Sa, 21.04. 3:00 14.3° C leicht bewölkt
Sa, 21.04. 2:50 14.3° C leicht bewölkt
Sa, 21.04. 2:40 14.2° C leicht bewölkt
Sa, 21.04. 2:30 15.0° C bedeckt
Sa, 21.04. 2:00 15.0° C wolkig
Sa, 21.04. 1:30 14.7° C wolkig
Sa, 21.04. 1:00 16.8° C wolkig
Sa, 21.04. 0:30 17.5° C bedeckt
Ortszeit Relative Feuchte Sichtweite
Sa, 21.04. 2:00 77% 12 km
Fr, 20.04. 20:00 43% 30 km
Fr, 20.04. 14:00 34% 26 km
Fr, 20.04. 8:00 75% 6 km
Fr, 20.04. 2:00 74% 8 km
Do, 19.04. 20:00 43% 23 km
Do, 19.04. 14:00 31% 30 km
Do, 19.04. 8:00 78% 6 km
Ortszeit Relative Feuchte Sichtweite
Sa, 21.04. 3:30 83% 8 km
Sa, 21.04. 3:20 83% -
Sa, 21.04. 3:10 83% -
Sa, 21.04. 3:00 81% 9 km
Sa, 21.04. 2:50 81% -
Sa, 21.04. 2:40 82% -
Sa, 21.04. 2:30 78% 11 km
Sa, 21.04. 2:00 77% 12 km
Sa, 21.04. 1:30 79% 12 km
Sa, 21.04. 1:00 68% 17 km
Sa, 21.04. 0:30 63% 18 km
Ortszeit Niederschlagsmenge Niederschlagsart
Sa, 21.04. 2:00 0.0 l/m2 in 6 Std. -
Fr, 20.04. 20:00 0.0 l/m2 in 12 Std. -
Fr, 20.04. 14:00 0.0 l/m2 in 6 Std. -
Fr, 20.04. 8:00 0.0 l/m2 in 12 Std. -
Fr, 20.04. 2:00 0.0 l/m2 in 6 Std. -
Do, 19.04. 20:00 0.0 l/m2 in 12 Std. -
Do, 19.04. 14:00 0.0 l/m2 in 6 Std. -
Do, 19.04. 8:00 0.0 l/m2 in 12 Std. -
Ortszeit Niederschlagsmenge Niederschlagsart
Sa, 21.04. 3:30 0.0 l/m2 in 1 Std. -
Sa, 21.04. 3:20 keine Meldung -
Sa, 21.04. 3:10 keine Meldung -
Sa, 21.04. 3:00 0.0 l/m2 in 1 Std. -
Sa, 21.04. 2:50 keine Meldung -
Sa, 21.04. 2:40 keine Meldung -
Sa, 21.04. 2:30 0.0 l/m2 in 1 Std. -
Sa, 21.04. 2:00 0.0 l/m2 in 1 Std. -
Sa, 21.04. 1:30 0.0 l/m2 in 1 Std. -
Sa, 21.04. 1:00 0.0 l/m2 in 1 Std. -
Sa, 21.04. 0:30 0.0 l/m2 in 1 Std. -
Ortszeit Stärke Spitze Richtung
km/h Bft. km/h Grad Sektor
Sa, 21.04. 2:00 4 1 14 250° W
Fr, 20.04. 20:00 6 1 26 270° W
Fr, 20.04. 14:00 14 3 25 260° W
Fr, 20.04. 8:00 11 2 17 160° S
Fr, 20.04. 2:00 7 2 13 150° SO
Do, 19.04. 20:00 9 2 30 140° SO
Do, 19.04. 14:00 19 3 28 120° SO
Do, 19.04. 8:00 7 2 18 110° O
Ortszeit Stärke Spitze Richtung
km/h Bft. km/h Grad Sektor
Sa, 21.04. 3:30 7 2 7 220° SW
Sa, 21.04. 3:20 7 2 - 220° SW
Sa, 21.04. 3:10 6 1 - 210° SW
Sa, 21.04. 3:00 7 2 7 240° SW
Sa, 21.04. 2:50 7 2 - 240° SW
Sa, 21.04. 2:40 7 2 - 250° W
Sa, 21.04. 2:30 6 1 7 270° W
Sa, 21.04. 2:00 4 1 7 250° W
Sa, 21.04. 1:30 6 1 7 220° SW
Sa, 21.04. 1:00 6 1 7 290° W
Sa, 21.04. 0:30 6 1 7 340° N
Ortszeit Untergrenze Bedeckung Gattung
total tief tief mittel hoch
Sa, 21.04. 2:00 3600 m 4/8 - - - -
Fr, 20.04. 20:00 2700 m 8/8 1/8 - - -
Fr, 20.04. 14:00 2700 m 2/8 2/8 - - -
Fr, 20.04. 8:00 10500 m 8/8 0/8 - - -
Fr, 20.04. 2:00 10500 m 0/8 0/8 - - -
Do, 19.04. 20:00 9000 m 8/8 0/8 - - -
Do, 19.04. 14:00 10500 m 8/8 0/8 - - -
Do, 19.04. 8:00 2400 m 1/8 - - - -
Ortszeit Bedeckungsgrad in Achtel und Wolkenuntergrenze
Sa, 21.04. 3:30 7(9000m)
Sa, 21.04. 3:20 7(9000m)
Sa, 21.04. 3:10 6(10500m)
Sa, 21.04. 3:00 1(2700m) 4(9000m)
Sa, 21.04. 2:50 1(2700m) 2(3600m) 4(9000m)
Sa, 21.04. 2:40 1(2700m) 3(3600m)
Sa, 21.04. 2:30 9 9 9
Sa, 21.04. 2:00 2(3600m) 4(10500m) 9
Sa, 21.04. 1:30 1(2700m) 2(3600m) 9(10500m)
Sa, 21.04. 1:00 1(2400m) 3(3300m) 7(10500m)
Sa, 21.04. 0:30 9 9 9
Ortszeit Luftdruck NN (hPa) Tendenz (hPa in 3 Std.)
Sa, 21.04. 2:00 1020 + 0,5
Fr, 20.04. 20:00 1019 - 1,4
Fr, 20.04. 14:00 1023 - 0,9
Fr, 20.04. 8:00 1025 - 0,6
Fr, 20.04. 2:00 1027 - 1,3
Do, 19.04. 20:00 1028 - 0,8
Do, 19.04. 14:00 1030 - 1,0
Do, 19.04. 8:00 1031 - 0,1
Ortszeit Luftdruck NN (hPa) Tendenz (hPa in 3 Std.)
Sa, 21.04. 3:30 1020 0,0
Sa, 21.04. 3:20 1020 keine Meldung
Sa, 21.04. 3:10 1020 keine Meldung
Sa, 21.04. 3:00 1020 0,0
Sa, 21.04. 2:50 1020 keine Meldung
Sa, 21.04. 2:40 1020 keine Meldung
Sa, 21.04. 2:30 1020 + 0,1
Sa, 21.04. 2:00 1020 + 0,5
Sa, 21.04. 1:30 1020 + 0,3
Sa, 21.04. 1:00 1020 + 0,2
Sa, 21.04. 0:30 1020 0,0
Ortszeit Schneehöhe (cm)
Sa, 21.04. 2:00 -
Fr, 20.04. 20:00 -
Fr, 20.04. 14:00 -
Fr, 20.04. 8:00 -
Fr, 20.04. 2:00 -
Do, 19.04. 20:00 -
Do, 19.04. 14:00 -
Do, 19.04. 8:00 -
Ortszeit Schneehöhe (cm)
Sa, 21.04. 3:30 -
Sa, 21.04. 3:20 -
Sa, 21.04. 3:10 -
Sa, 21.04. 3:00 -
Sa, 21.04. 2:50 -
Sa, 21.04. 2:40 -
Sa, 21.04. 2:30 -
Sa, 21.04. 2:00 -
Sa, 21.04. 1:30 -
Sa, 21.04. 1:00 -
Sa, 21.04. 0:30 -
Link zu dieser Seite / Seite empfehlen

Das Wetter in ...